PYM weather

Plymouth Municipal Airport
Plymouth, Massachusetts, United States

Public forecast

Using degrees Fahrenheit for public forecast. Weather courtesy of forecast.io.

METAR (pilot weather report)

Retrieved 2019/09/16 18:52 UTC (31 minutes ago):

KPYM 161852Z AUTO 32008KT 10SM CLR 22/10 A3000 RMK AO2 SLP159 T02220100

TAF (pilot weather forecast)

Forecast is more than 6 hours old.

Closest forecast is Cape Cod Coast Guard Air Station, 17.7 nm (32.7 km) SSE. Retrieved 2019/09/16 12:51 UTC (7 hours ago):

TAF KFMH 161147Z 1612/1712 36007KT P6SM SCT060 BKN120 FM161900 03005KT P6SM SCT200 FM162100 17005KT P6SM SCT250 FM170000 21003KT P6SM FEW250 FM170200 28003KT P6SM FEW250